Terminal Aerodrome Forecast
Issued by NWS Chicago, IL

Current Version | Previous Version | Text Only | Print | Product List | Glossary On
Versions: 1 2 3 4 5 6 7 8 9 10 11 12 13 14 15 16 17 18 19 20 21 22 23 24 25 26 27 28 29
871
FTUS43 KLOT 290522
TAFRFD
TAF
KRFD 290522Z 2906/3006 04010G15KT P6SM SCT008 OVC015
      TEMPO 2906/2909 P6SM -DZ BKN008
     FM291800 06018G28KT P6SM -SHRA OVC020
     FM292000 06018G28KT 3SM RA BR OVC012
     FM300000 05020G30KT 3SM -DZRA BR OVC006=

USA.gov is the U.S. government's official web portal to all federal, state and local government web resources and services.